sensor_id;sensor_type;location;lat;lon;timestamp;temperature;humidity
32506;DHT22;18955;51.224;8.482;2023-04-06T00:02:19;3.80;76.10
32506;DHT22;18955;51.224;8.482;2023-04-06T00:04:45;3.80;76.20
32506;DHT22;18955;51.224;8.482;2023-04-06T00:07:12;3.70;76.20
32506;DHT22;18955;51.224;8.482;2023-04-06T00:09:38;3.70;76.30
32506;DHT22;18955;51.224;8.482;2023-04-06T00:12:04;3.70;76.30
32506;DHT22;18955;51.224;8.482;2023-04-06T00:14:31;3.70;76.50
32506;DHT22;18955;51.224;8.482;2023-04-06T00:16:57;3.60;76.40
32506;DHT22;18955;51.224;8.482;2023-04-06T00:19:24;3.60;76.40
32506;DHT22;18955;51.224;8.482;2023-04-06T00:21:50;3.60;77.00
32506;DHT22;18955;51.224;8.482;2023-04-06T00:24:16;3.60;76.60
32506;DHT22;18955;51.224;8.482;2023-04-06T00:26:42;3.60;76.60
32506;DHT22;18955;51.224;8.482;2023-04-06T00:29:09;3.60;76.60
32506;DHT22;18955;51.224;8.482;2023-04-06T00:31:35;3.50;76.60
32506;DHT22;18955;51.224;8.482;2023-04-06T00:34:01;3.50;76.70
32506;DHT22;18955;51.224;8.482;2023-04-06T00:36:28;3.50;76.80
32506;DHT22;18955;51.224;8.482;2023-04-06T00:38:54;3.50;76.70
32506;DHT22;18955;51.224;8.482;2023-04-06T00:41:21;3.50;76.80
32506;DHT22;18955;51.224;8.482;2023-04-06T00:43:47;3.40;76.70
32506;DHT22;18955;51.224;8.482;2023-04-06T00:46:13;3.40;76.70
32506;DHT22;18955;51.224;8.482;2023-04-06T00:48:40;3.40;76.80
32506;DHT22;18955;51.224;8.482;2023-04-06T00:51:06;3.40;76.90
32506;DHT22;18955;51.224;8.482;2023-04-06T00:53:33;3.30;76.80
32506;DHT22;18955;51.224;8.482;2023-04-06T00:56:01;3.40;76.90
32506;DHT22;18955;51.224;8.482;2023-04-06T00:58:33;3.30;76.80
32506;DHT22;18955;51.224;8.482;2023-04-06T01:01:06;3.30;76.80
32506;DHT22;18955;51.224;8.482;2023-04-06T01:03:34;3.20;76.80
32506;DHT22;18955;51.224;8.482;2023-04-06T01:06:00;3.20;76.70
32506;DHT22;18955;51.224;8.482;2023-04-06T01:08:34;3.20;76.90
32506;DHT22;18955;51.224;8.482;2023-04-06T01:11:14;3.20;76.90
32506;DHT22;18955;51.224;8.482;2023-04-06T01:13:41;3.20;77.40
32506;DHT22;18955;51.224;8.482;2023-04-06T01:16:15;3.20;76.90
32506;DHT22;18955;51.224;8.482;2023-04-06T01:19:00;3.20;76.80
32506;DHT22;18955;51.224;8.482;2023-04-06T01:21:30;3.10;76.70
32506;DHT22;18955;51.224;8.482;2023-04-06T01:24:17;3.10;76.60
32506;DHT22;18955;51.224;8.482;2023-04-06T01:27:03;3.10;76.70
32506;DHT22;18955;51.224;8.482;2023-04-06T01:29:47;3.10;76.70
32506;DHT22;18955;51.224;8.482;2023-04-06T01:32:20;3.00;76.60
32506;DHT22;18955;51.224;8.482;2023-04-06T01:34:50;3.00;76.60
32506;DHT22;18955;51.224;8.482;2023-04-06T01:37:16;3.00;76.60
32506;DHT22;18955;51.224;8.482;2023-04-06T01:39:44;3.00;76.60
32506;DHT22;18955;51.224;8.482;2023-04-06T01:42:16;2.90;76.40
32506;DHT22;18955;51.224;8.482;2023-04-06T01:44:45;2.90;76.50
32506;DHT22;18955;51.224;8.482;2023-04-06T01:47:14;2.90;76.40
32506;DHT22;18955;51.224;8.482;2023-04-06T01:49:40;2.80;76.40
32506;DHT22;18955;51.224;8.482;2023-04-06T01:52:08;2.90;76.40
32506;DHT22;18955;51.224;8.482;2023-04-06T01:54:37;2.80;77.00
32506;DHT22;18955;51.224;8.482;2023-04-06T01:57:22;2.80;76.50
32506;DHT22;18955;51.224;8.482;2023-04-06T01:59:57;2.80;76.40
32506;DHT22;18955;51.224;8.482;2023-04-06T02:02:44;2.80;76.40
32506;DHT22;18955;51.224;8.482;2023-04-06T02:05:19;2.70;76.40
32506;DHT22;18955;51.224;8.482;2023-04-06T02:07:46;2.70;76.40
32506;DHT22;18955;51.224;8.482;2023-04-06T02:10:17;2.70;76.40
32506;DHT22;18955;51.224;8.482;2023-04-06T02:12:44;2.70;76.40
32506;DHT22;18955;51.224;8.482;2023-04-06T02:15:16;2.60;76.40
32506;DHT22;18955;51.224;8.482;2023-04-06T02:17:43;2.60;76.50
32506;DHT22;18955;51.224;8.482;2023-04-06T02:20:09;2.60;76.50
32506;DHT22;18955;51.224;8.482;2023-04-06T02:22:36;2.60;76.50
32506;DHT22;18955;51.224;8.482;2023-04-06T02:25:02;2.60;76.60
32506;DHT22;18955;51.224;8.482;2023-04-06T02:27:29;2.60;76.50
32506;DHT22;18955;51.224;8.482;2023-04-06T02:29:55;2.50;76.50
32506;DHT22;18955;51.224;8.482;2023-04-06T02:32:21;2.50;76.50
32506;DHT22;18955;51.224;8.482;2023-04-06T02:34:48;2.50;76.60
32506;DHT22;18955;51.224;8.482;2023-04-06T02:37:17;2.50;76.50
32506;DHT22;18955;51.224;8.482;2023-04-06T02:39:43;2.50;76.50
32506;DHT22;18955;51.224;8.482;2023-04-06T02:42:09;2.50;76.50
32506;DHT22;18955;51.224;8.482;2023-04-06T02:44:36;2.40;76.50
32506;DHT22;18955;51.224;8.482;2023-04-06T02:47:02;2.40;76.50
32506;DHT22;18955;51.224;8.482;2023-04-06T02:49:29;2.40;76.50
32506;DHT22;18955;51.224;8.482;2023-04-06T02:51:57;2.40;76.60
32506;DHT22;18955;51.224;8.482;2023-04-06T02:54:28;2.30;76.40
32506;DHT22;18955;51.224;8.482;2023-04-06T02:56:55;2.30;76.50
32506;DHT22;18955;51.224;8.482;2023-04-06T02:59:25;2.30;76.50
32506;DHT22;18955;51.224;8.482;2023-04-06T03:02:11;2.30;76.60
32506;DHT22;18955;51.224;8.482;2023-04-06T03:04:38;2.30;76.50
32506;DHT22;18955;51.224;8.482;2023-04-06T03:07:08;2.30;76.50
32506;DHT22;18955;51.224;8.482;2023-04-06T03:09:38;2.20;76.50
32506;DHT22;18955;51.224;8.482;2023-04-06T03:12:04;2.20;76.50
32506;DHT22;18955;51.224;8.482;2023-04-06T03:14:39;2.20;76.50
32506;DHT22;18955;51.224;8.482;2023-04-06T03:17:06;2.20;76.50
32506;DHT22;18955;51.224;8.482;2023-04-06T03:19:32;2.20;76.60
32506;DHT22;18955;51.224;8.482;2023-04-06T03:22:01;2.20;76.50
32506;DHT22;18955;51.224;8.482;2023-04-06T03:24:28;2.10;76.50
32506;DHT22;18955;51.224;8.482;2023-04-06T03:26:54;2.10;76.60
32506;DHT22;18955;51.224;8.482;2023-04-06T03:29:21;2.10;76.60
32506;DHT22;18955;51.224;8.482;2023-04-06T03:31:48;2.10;76.60
32506;DHT22;18955;51.224;8.482;2023-04-06T03:34:26;2.10;76.60
32506;DHT22;18955;51.224;8.482;2023-04-06T03:36:52;2.00;76.60
32506;DHT22;18955;51.224;8.482;2023-04-06T03:39:18;2.00;76.70
32506;DHT22;18955;51.224;8.482;2023-04-06T03:41:45;2.00;76.60
32506;DHT22;18955;51.224;8.482;2023-04-06T03:44:33;2.00;76.60
32506;DHT22;18955;51.224;8.482;2023-04-06T03:46:59;2.00;76.70
32506;DHT22;18955;51.224;8.482;2023-04-06T03:49:26;2.00;76.70
32506;DHT22;18955;51.224;8.482;2023-04-06T03:51:53;1.90;76.60
32506;DHT22;18955;51.224;8.482;2023-04-06T03:54:20;2.00;76.70
32506;DHT22;18955;51.224;8.482;2023-04-06T03:56:46;1.90;76.70
32506;DHT22;18955;51.224;8.482;2023-04-06T03:59:12;1.90;76.70
32506;DHT22;18955;51.224;8.482;2023-04-06T04:01:38;1.90;76.60
32506;DHT22;18955;51.224;8.482;2023-04-06T04:04:05;1.90;77.20
32506;DHT22;18955;51.224;8.482;2023-04-06T04:06:31;1.80;76.70
32506;DHT22;18955;51.224;8.482;2023-04-06T04:08:58;1.80;76.60
32506;DHT22;18955;51.224;8.482;2023-04-06T04:11:24;1.80;76.60
32506;DHT22;18955;51.224;8.482;2023-04-06T04:13:56;1.80;76.60
32506;DHT22;18955;51.224;8.482;2023-04-06T04:16:23;1.80;76.60
32506;DHT22;18955;51.224;8.482;2023-04-06T04:18:49;1.80;76.60
32506;DHT22;18955;51.224;8.482;2023-04-06T04:21:15;1.70;76.60
32506;DHT22;18955;51.224;8.482;2023-04-06T04:23:42;1.70;76.60
32506;DHT22;18955;51.224;8.482;2023-04-06T04:26:08;2.00;76.90
32506;DHT22;18955;51.224;8.482;2023-04-06T04:28:35;1.70;77.30
32506;DHT22;18955;51.224;8.482;2023-04-06T04:31:01;1.70;76.80
32506;DHT22;18955;51.224;8.482;2023-04-06T04:33:31;1.70;76.80
32506;DHT22;18955;51.224;8.482;2023-04-06T04:35:58;1.70;76.80
32506;DHT22;18955;51.224;8.482;2023-04-06T04:38:29;1.70;76.80
32506;DHT22;18955;51.224;8.482;2023-04-06T04:40:56;1.60;76.80
32506;DHT22;18955;51.224;8.482;2023-04-06T04:43:23;1.60;76.80
32506;DHT22;18955;51.224;8.482;2023-04-06T04:45:50;1.60;76.80
32506;DHT22;18955;51.224;8.482;2023-04-06T04:48:26;1.60;76.80
32506;DHT22;18955;51.224;8.482;2023-04-06T04:50:58;1.60;76.90
32506;DHT22;18955;51.224;8.482;2023-04-06T04:53:28;1.60;76.90
32506;DHT22;18955;51.224;8.482;2023-04-06T04:56:01;1.50;76.80
32506;DHT22;18955;51.224;8.482;2023-04-06T04:58:28;1.50;76.90
32506;DHT22;18955;51.224;8.482;2023-04-06T05:00:56;1.50;76.90
32506;DHT22;18955;51.224;8.482;2023-04-06T05:03:25;1.50;76.90
32506;DHT22;18955;51.224;8.482;2023-04-06T05:06:05;1.50;77.00
32506;DHT22;18955;51.224;8.482;2023-04-06T05:08:34;1.50;76.90
32506;DHT22;18955;51.224;8.482;2023-04-06T05:11:01;1.40;76.90
32506;DHT22;18955;51.224;8.482;2023-04-06T05:13:31;1.50;77.00
32506;DHT22;18955;51.224;8.482;2023-04-06T05:15:59;1.40;76.90
32506;DHT22;18955;51.224;8.482;2023-04-06T05:18:29;1.40;77.00
32506;DHT22;18955;51.224;8.482;2023-04-06T05:20:57;1.40;77.00
32506;DHT22;18955;51.224;8.482;2023-04-06T05:23:31;1.40;77.00
32506;DHT22;18955;51.224;8.482;2023-04-06T05:26:00;1.40;77.00
32506;DHT22;18955;51.224;8.482;2023-04-06T05:28:27;1.40;77.00
32506;DHT22;18955;51.224;8.482;2023-04-06T05:30:53;1.40;76.90
32506;DHT22;18955;51.224;8.482;2023-04-06T05:33:19;1.40;76.90
32506;DHT22;18955;51.224;8.482;2023-04-06T05:35:59;1.40;76.90
32506;DHT22;18955;51.224;8.482;2023-04-06T05:38:27;1.30;76.90
32506;DHT22;18955;51.224;8.482;2023-04-06T05:40:56;1.30;76.90
32506;DHT22;18955;51.224;8.482;2023-04-06T05:43:26;1.30;76.90
32506;DHT22;18955;51.224;8.482;2023-04-06T05:45:55;1.30;76.90
32506;DHT22;18955;51.224;8.482;2023-04-06T05:48:21;1.30;76.90
32506;DHT22;18955;51.224;8.482;2023-04-06T05:50:51;1.30;76.90
32506;DHT22;18955;51.224;8.482;2023-04-06T05:53:21;1.30;77.00
32506;DHT22;18955;51.224;8.482;2023-04-06T05:55:53;1.30;77.10
32506;DHT22;18955;51.224;8.482;2023-04-06T05:58:21;1.30;77.20
32506;DHT22;18955;51.224;8.482;2023-04-06T06:00:49;1.20;77.20
32506;DHT22;18955;51.224;8.482;2023-04-06T06:03:18;1.30;77.20
32506;DHT22;18955;51.224;8.482;2023-04-06T06:05:50;1.20;77.20
32506;DHT22;18955;51.224;8.482;2023-04-06T06:08:27;1.20;77.70
32506;DHT22;18955;51.224;8.482;2023-04-06T06:10:54;1.20;77.20
32506;DHT22;18955;51.224;8.482;2023-04-06T06:13:23;1.20;77.30
32506;DHT22;18955;51.224;8.482;2023-04-06T06:15:50;1.20;77.30
32506;DHT22;18955;51.224;8.482;2023-04-06T06:18:19;1.20;77.30
32506;DHT22;18955;51.224;8.482;2023-04-06T06:20:47;1.20;77.30
32506;DHT22;18955;51.224;8.482;2023-04-06T06:23:14;1.20;77.90
32506;DHT22;18955;51.224;8.482;2023-04-06T06:25:41;1.20;77.30
32506;DHT22;18955;51.224;8.482;2023-04-06T06:28:07;1.20;77.40
32506;DHT22;18955;51.224;8.482;2023-04-06T06:30:33;1.20;77.40
32506;DHT22;18955;51.224;8.482;2023-04-06T06:33:00;1.20;77.30
32506;DHT22;18955;51.224;8.482;2023-04-06T06:35:28;1.20;77.40
32506;DHT22;18955;51.224;8.482;2023-04-06T06:37:54;1.20;77.40
32506;DHT22;18955;51.224;8.482;2023-04-06T06:40:23;1.20;77.30
32506;DHT22;18955;51.224;8.482;2023-04-06T06:42:50;1.30;77.10
32506;DHT22;18955;51.224;8.482;2023-04-06T06:45:36;1.40;77.10
32506;DHT22;18955;51.224;8.482;2023-04-06T06:48:03;1.40;77.00
32506;DHT22;18955;51.224;8.482;2023-04-06T06:50:29;1.50;76.90
32506;DHT22;18955;51.224;8.482;2023-04-06T06:52:55;1.60;76.70
32506;DHT22;18955;51.224;8.482;2023-04-06T06:55:22;1.60;76.50
32506;DHT22;18955;51.224;8.482;2023-04-06T06:57:49;1.70;76.50
32506;DHT22;18955;51.224;8.482;2023-04-06T07:00:15;1.80;76.40
32506;DHT22;18955;51.224;8.482;2023-04-06T07:02:44;1.80;76.30
32506;DHT22;18955;51.224;8.482;2023-04-06T07:05:10;1.90;76.30
32506;DHT22;18955;51.224;8.482;2023-04-06T07:07:37;1.90;76.20
32506;DHT22;18955;51.224;8.482;2023-04-06T07:10:04;2.00;76.20
32506;DHT22;18955;51.224;8.482;2023-04-06T07:12:30;2.00;76.20
32506;DHT22;18955;51.224;8.482;2023-04-06T07:14:56;2.10;76.20
32506;DHT22;18955;51.224;8.482;2023-04-06T07:17:23;2.10;76.20
32506;DHT22;18955;51.224;8.482;2023-04-06T07:19:49;2.20;76.20
32506;DHT22;18955;51.224;8.482;2023-04-06T07:22:15;2.30;76.30
32506;DHT22;18955;51.224;8.482;2023-04-06T07:24:42;2.30;76.30
32506;DHT22;18955;51.224;8.482;2023-04-06T07:27:08;2.40;76.00
32506;DHT22;18955;51.224;8.482;2023-04-06T07:29:35;2.40;75.90
32506;DHT22;18955;51.224;8.482;2023-04-06T07:32:01;2.50;76.00
32506;DHT22;18955;51.224;8.482;2023-04-06T07:34:28;2.60;76.00
32506;DHT22;18955;51.224;8.482;2023-04-06T07:36:54;2.60;75.90
32506;DHT22;18955;51.224;8.482;2023-04-06T07:39:20;2.70;75.80
32506;DHT22;18955;51.224;8.482;2023-04-06T07:41:47;2.80;75.90
32506;DHT22;18955;51.224;8.482;2023-04-06T07:44:13;2.80;75.90
32506;DHT22;18955;51.224;8.482;2023-04-06T07:46:40;2.80;75.80
32506;DHT22;18955;51.224;8.482;2023-04-06T07:49:06;2.90;75.80
32506;DHT22;18955;51.224;8.482;2023-04-06T07:51:38;2.90;75.70
32506;DHT22;18955;51.224;8.482;2023-04-06T07:54:05;3.00;75.90
32506;DHT22;18955;51.224;8.482;2023-04-06T07:56:31;3.00;75.70
32506;DHT22;18955;51.224;8.482;2023-04-06T07:58:58;3.10;75.70
32506;DHT22;18955;51.224;8.482;2023-04-06T08:01:25;3.10;75.80
32506;DHT22;18955;51.224;8.482;2023-04-06T08:03:52;3.10;75.80
32506;DHT22;18955;51.224;8.482;2023-04-06T08:06:18;3.20;75.90
32506;DHT22;18955;51.224;8.482;2023-04-06T08:08:44;3.20;76.00
32506;DHT22;18955;51.224;8.482;2023-04-06T08:11:11;3.20;76.00
32506;DHT22;18955;51.224;8.482;2023-04-06T08:13:37;3.30;76.10
32506;DHT22;18955;51.224;8.482;2023-04-06T08:16:04;3.30;76.00
32506;DHT22;18955;51.224;8.482;2023-04-06T08:18:30;3.40;76.00
32506;DHT22;18955;51.224;8.482;2023-04-06T08:20:56;3.40;76.20
32506;DHT22;18955;51.224;8.482;2023-04-06T08:23:23;3.50;76.30
32506;DHT22;18955;51.224;8.482;2023-04-06T08:25:49;3.50;76.50
32506;DHT22;18955;51.224;8.482;2023-04-06T08:28:15;3.50;76.30
32506;DHT22;18955;51.224;8.482;2023-04-06T08:30:42;3.50;76.30
32506;DHT22;18955;51.224;8.482;2023-04-06T08:33:09;3.60;76.60
32506;DHT22;18955;51.224;8.482;2023-04-06T08:35:36;3.60;76.50
32506;DHT22;18955;51.224;8.482;2023-04-06T08:38:02;3.60;76.40
32506;DHT22;18955;51.224;8.482;2023-04-06T08:40:28;3.70;76.60
32506;DHT22;18955;51.224;8.482;2023-04-06T08:42:56;3.70;76.50
32506;DHT22;18955;51.224;8.482;2023-04-06T08:45:23;3.70;76.60
32506;DHT22;18955;51.224;8.482;2023-04-06T08:47:50;3.70;76.70
32506;DHT22;18955;51.224;8.482;2023-04-06T08:50:17;3.80;76.90
32506;DHT22;18955;51.224;8.482;2023-04-06T08:52:47;3.80;76.80
32506;DHT22;18955;51.224;8.482;2023-04-06T08:55:14;3.80;76.80
32506;DHT22;18955;51.224;8.482;2023-04-06T08:57:41;3.80;76.70
32506;DHT22;18955;51.224;8.482;2023-04-06T09:00:10;3.80;76.90
32506;DHT22;18955;51.224;8.482;2023-04-06T09:02:39;3.80;77.00
32506;DHT22;18955;51.224;8.482;2023-04-06T09:05:08;3.90;77.20
32506;DHT22;18955;51.224;8.482;2023-04-06T09:07:35;3.90;77.00
32506;DHT22;18955;51.224;8.482;2023-04-06T09:10:02;3.90;77.10
32506;DHT22;18955;51.224;8.482;2023-04-06T09:12:31;3.90;76.80
32506;DHT22;18955;51.224;8.482;2023-04-06T09:14:58;3.90;77.30
32506;DHT22;18955;51.224;8.482;2023-04-06T09:17:26;3.90;77.30
32506;DHT22;18955;51.224;8.482;2023-04-06T09:19:53;4.00;77.30
32506;DHT22;18955;51.224;8.482;2023-04-06T09:22:20;4.00;77.30
32506;DHT22;18955;51.224;8.482;2023-04-06T09:24:49;4.00;77.50
32506;DHT22;18955;51.224;8.482;2023-04-06T09:27:16;4.00;77.30
32506;DHT22;18955;51.224;8.482;2023-04-06T09:29:43;4.10;77.60
32506;DHT22;18955;51.224;8.482;2023-04-06T09:32:11;4.10;77.60
32506;DHT22;18955;51.224;8.482;2023-04-06T09:34:40;4.20;77.60
32506;DHT22;18955;51.224;8.482;2023-04-06T09:37:16;4.10;77.70
32506;DHT22;18955;51.224;8.482;2023-04-06T09:39:44;4.20;77.80
32506;DHT22;18955;51.224;8.482;2023-04-06T09:42:25;4.20;77.60
32506;DHT22;18955;51.224;8.482;2023-04-06T09:44:51;4.20;77.70
32506;DHT22;18955;51.224;8.482;2023-04-06T09:47:18;4.20;77.90
32506;DHT22;18955;51.224;8.482;2023-04-06T09:49:47;4.30;78.10
32506;DHT22;18955;51.224;8.482;2023-04-06T09:52:16;4.30;77.80
32506;DHT22;18955;51.224;8.482;2023-04-06T09:54:45;4.30;77.50
32506;DHT22;18955;51.224;8.482;2023-04-06T10:00:05;4.40;77.90
32506;DHT22;18955;51.224;8.482;2023-04-06T10:05:42;4.50;77.80
32506;DHT22;18955;51.224;8.482;2023-04-06T10:08:10;4.50;78.60
32506;DHT22;18955;51.224;8.482;2023-04-06T10:10:37;4.50;77.60
32506;DHT22;18955;51.224;8.482;2023-04-06T10:13:04;4.60;77.70
32506;DHT22;18955;51.224;8.482;2023-04-06T10:15:31;4.70;77.90
32506;DHT22;18955;51.224;8.482;2023-04-06T10:17:58;4.70;77.50
32506;DHT22;18955;51.224;8.482;2023-04-06T10:20:41;4.80;78.00
32506;DHT22;18955;51.224;8.482;2023-04-06T10:23:37;4.80;78.20
32506;DHT22;18955;51.224;8.482;2023-04-06T10:26:13;4.80;76.80
32506;DHT22;18955;51.224;8.482;2023-04-06T10:28:41;4.90;78.00
32506;DHT22;18955;51.224;8.482;2023-04-06T10:31:08;4.90;78.10
32506;DHT22;18955;51.224;8.482;2023-04-06T10:33:34;5.00;78.10
32506;DHT22;18955;51.224;8.482;2023-04-06T10:36:14;5.00;78.20
32506;DHT22;18955;51.224;8.482;2023-04-06T10:38:42;5.00;78.30
32506;DHT22;18955;51.224;8.482;2023-04-06T10:41:12;5.10;78.20
32506;DHT22;18955;51.224;8.482;2023-04-06T10:43:40;5.10;77.90
32506;DHT22;18955;51.224;8.482;2023-04-06T10:46:08;5.20;78.10
32506;DHT22;18955;51.224;8.482;2023-04-06T10:48:41;5.20;78.30
32506;DHT22;18955;51.224;8.482;2023-04-06T10:51:10;5.20;78.40
32506;DHT22;18955;51.224;8.482;2023-04-06T10:53:37;5.30;78.30
32506;DHT22;18955;51.224;8.482;2023-04-06T10:56:04;5.30;78.30
32506;DHT22;18955;51.224;8.482;2023-04-06T10:58:35;5.30;78.60
32506;DHT22;18955;51.224;8.482;2023-04-06T11:01:01;5.40;78.30
32506;DHT22;18955;51.224;8.482;2023-04-06T11:03:28;5.40;78.80
32506;DHT22;18955;51.224;8.482;2023-04-06T11:05:54;5.50;78.90
32506;DHT22;18955;51.224;8.482;2023-04-06T11:08:32;5.50;78.10
32506;DHT22;18955;51.224;8.482;2023-04-06T11:11:09;5.60;78.30
32506;DHT22;18955;51.224;8.482;2023-04-06T11:13:49;5.60;78.30
32506;DHT22;18955;51.224;8.482;2023-04-06T11:16:21;5.70;78.60
32506;DHT22;18955;51.224;8.482;2023-04-06T11:21:14;5.70;78.20
32506;DHT22;18955;51.224;8.482;2023-04-06T11:23:40;5.80;78.20
32506;DHT22;18955;51.224;8.482;2023-04-06T11:26:11;5.80;78.60
32506;DHT22;18955;51.224;8.482;2023-04-06T11:28:42;5.80;78.10
32506;DHT22;18955;51.224;8.482;2023-04-06T11:31:10;5.80;78.10
32506;DHT22;18955;51.224;8.482;2023-04-06T11:33:37;5.90;78.30
32506;DHT22;18955;51.224;8.482;2023-04-06T11:36:05;5.90;78.50
32506;DHT22;18955;51.224;8.482;2023-04-06T11:38:31;5.90;78.40
32506;DHT22;18955;51.224;8.482;2023-04-06T11:40:58;6.00;78.60
32506;DHT22;18955;51.224;8.482;2023-04-06T11:43:31;6.00;78.60
32506;DHT22;18955;51.224;8.482;2023-04-06T11:46:02;6.00;77.30
32506;DHT22;18955;51.224;8.482;2023-04-06T11:48:29;6.00;78.10
32506;DHT22;18955;51.224;8.482;2023-04-06T11:50:57;6.10;77.80
32506;DHT22;18955;51.224;8.482;2023-04-06T11:53:24;6.10;78.30
32506;DHT22;18955;51.224;8.482;2023-04-06T11:55:51;6.20;78.30
32506;DHT22;18955;51.224;8.482;2023-04-06T11:58:17;6.20;77.60
32506;DHT22;18955;51.224;8.482;2023-04-06T12:00:44;6.20;77.50
32506;DHT22;18955;51.224;8.482;2023-04-06T12:03:13;6.20;77.90
32506;DHT22;18955;51.224;8.482;2023-04-06T12:05:39;6.20;78.10
32506;DHT22;18955;51.224;8.482;2023-04-06T12:08:06;6.30;78.50
32506;DHT22;18955;51.224;8.482;2023-04-06T12:10:32;6.30;78.00
32506;DHT22;18955;51.224;8.482;2023-04-06T12:12:58;6.30;77.50
32506;DHT22;18955;51.224;8.482;2023-04-06T12:15:25;6.30;78.00
32506;DHT22;18955;51.224;8.482;2023-04-06T12:17:51;6.40;78.30
32506;DHT22;18955;51.224;8.482;2023-04-06T12:20:17;6.50;77.90
32506;DHT22;18955;51.224;8.482;2023-04-06T12:22:44;6.40;77.40
32506;DHT22;18955;51.224;8.482;2023-04-06T12:25:10;6.50;77.50
32506;DHT22;18955;51.224;8.482;2023-04-06T12:27:36;6.50;77.80
32506;DHT22;18955;51.224;8.482;2023-04-06T12:30:03;6.50;78.40
32506;DHT22;18955;51.224;8.482;2023-04-06T12:32:29;6.60;78.40
32506;DHT22;18955;51.224;8.482;2023-04-06T12:34:56;6.60;78.80
32506;DHT22;18955;51.224;8.482;2023-04-06T12:37:22;6.60;78.10
32506;DHT22;18955;51.224;8.482;2023-04-06T12:39:48;6.70;77.70
32506;DHT22;18955;51.224;8.482;2023-04-06T12:42:15;6.70;77.80
32506;DHT22;18955;51.224;8.482;2023-04-06T12:44:41;6.70;78.10
32506;DHT22;18955;51.224;8.482;2023-04-06T12:47:08;6.80;77.80
32506;DHT22;18955;51.224;8.482;2023-04-06T12:49:35;6.80;78.10
32506;DHT22;18955;51.224;8.482;2023-04-06T12:52:02;6.80;77.90
32506;DHT22;18955;51.224;8.482;2023-04-06T12:54:28;6.90;77.60
32506;DHT22;18955;51.224;8.482;2023-04-06T12:56:55;6.90;77.90
32506;DHT22;18955;51.224;8.482;2023-04-06T12:59:22;6.90;78.10
32506;DHT22;18955;51.224;8.482;2023-04-06T13:01:51;6.90;78.40
32506;DHT22;18955;51.224;8.482;2023-04-06T13:04:18;7.00;78.40
32506;DHT22;18955;51.224;8.482;2023-04-06T13:06:45;7.00;78.60
32506;DHT22;18955;51.224;8.482;2023-04-06T13:09:11;7.00;78.40
32506;DHT22;18955;51.224;8.482;2023-04-06T13:11:37;7.10;78.10
32506;DHT22;18955;51.224;8.482;2023-04-06T13:14:04;7.10;79.20
32506;DHT22;18955;51.224;8.482;2023-04-06T13:16:31;7.10;78.00
32506;DHT22;18955;51.224;8.482;2023-04-06T13:18:58;7.10;77.90
32506;DHT22;18955;51.224;8.482;2023-04-06T13:21:24;7.20;79.00
32506;DHT22;18955;51.224;8.482;2023-04-06T13:23:50;7.20;78.10
32506;DHT22;18955;51.224;8.482;2023-04-06T13:26:17;7.20;78.00
32506;DHT22;18955;51.224;8.482;2023-04-06T13:28:43;7.20;78.10
32506;DHT22;18955;51.224;8.482;2023-04-06T13:31:10;7.30;77.80
32506;DHT22;18955;51.224;8.482;2023-04-06T13:33:36;7.30;77.50
32506;DHT22;18955;51.224;8.482;2023-04-06T13:36:03;7.30;77.60
32506;DHT22;18955;51.224;8.482;2023-04-06T13:38:30;7.40;78.30
32506;DHT22;18955;51.224;8.482;2023-04-06T13:40:56;7.40;78.50
32506;DHT22;18955;51.224;8.482;2023-04-06T13:43:22;7.40;78.60
32506;DHT22;18955;51.224;8.482;2023-04-06T13:45:51;7.40;78.80
32506;DHT22;18955;51.224;8.482;2023-04-06T13:48:18;7.50;78.10
32506;DHT22;18955;51.224;8.482;2023-04-06T13:50:45;7.50;77.40
32506;DHT22;18955;51.224;8.482;2023-04-06T13:53:14;7.50;78.20
32506;DHT22;18955;51.224;8.482;2023-04-06T13:55:40;7.50;78.40
32506;DHT22;18955;51.224;8.482;2023-04-06T13:58:06;7.60;78.20
32506;DHT22;18955;51.224;8.482;2023-04-06T14:00:33;7.60;78.20
32506;DHT22;18955;51.224;8.482;2023-04-06T14:02:59;7.40;78.00
32506;DHT22;18955;51.224;8.482;2023-04-06T14:05:26;7.70;78.30
32506;DHT22;18955;51.224;8.482;2023-04-06T14:07:53;7.70;78.30
32506;DHT22;18955;51.224;8.482;2023-04-06T14:10:20;7.70;78.20
32506;DHT22;18955;51.224;8.482;2023-04-06T14:12:49;7.80;78.10
32506;DHT22;18955;51.224;8.482;2023-04-06T14:15:16;7.90;77.90
32506;DHT22;18955;51.224;8.482;2023-04-06T14:17:42;8.00;77.70
32506;DHT22;18955;51.224;8.482;2023-04-06T14:20:08;8.00;77.80
32506;DHT22;18955;51.224;8.482;2023-04-06T14:22:41;8.00;77.80
32506;DHT22;18955;51.224;8.482;2023-04-06T14:25:08;8.00;77.20
32506;DHT22;18955;51.224;8.482;2023-04-06T14:27:34;8.10;77.30
32506;DHT22;18955;51.224;8.482;2023-04-06T14:30:00;8.10;77.40
32506;DHT22;18955;51.224;8.482;2023-04-06T14:32:26;8.20;77.40
32506;DHT22;18955;51.224;8.482;2023-04-06T14:34:53;8.10;77.30
32506;DHT22;18955;51.224;8.482;2023-04-06T14:37:19;8.20;77.40
32506;DHT22;18955;51.224;8.482;2023-04-06T14:39:46;8.20;77.50
32506;DHT22;18955;51.224;8.482;2023-04-06T14:42:13;8.30;77.70
32506;DHT22;18955;51.224;8.482;2023-04-06T14:44:39;8.30;77.90
32506;DHT22;18955;51.224;8.482;2023-04-06T14:47:09;8.30;77.90
32506;DHT22;18955;51.224;8.482;2023-04-06T14:49:36;8.10;77.80
32506;DHT22;18955;51.224;8.482;2023-04-06T14:52:02;8.40;77.90
32506;DHT22;18955;51.224;8.482;2023-04-06T14:54:29;8.50;77.80
32506;DHT22;18955;51.224;8.482;2023-04-06T14:56:55;8.50;77.60
32506;DHT22;18955;51.224;8.482;2023-04-06T14:59:22;8.50;77.40
32506;DHT22;18955;51.224;8.482;2023-04-06T15:01:49;8.50;77.30
32506;DHT22;18955;51.224;8.482;2023-04-06T15:04:15;8.60;77.50
32506;DHT22;18955;51.224;8.482;2023-04-06T15:06:41;8.60;77.00
32506;DHT22;18955;51.224;8.482;2023-04-06T15:09:07;8.60;76.70
32506;DHT22;18955;51.224;8.482;2023-04-06T15:11:33;8.60;76.60
32506;DHT22;18955;51.224;8.482;2023-04-06T15:14:00;8.60;77.00
32506;DHT22;18955;51.224;8.482;2023-04-06T15:16:27;8.60;77.80
32506;DHT22;18955;51.224;8.482;2023-04-06T15:19:01;8.60;77.80
32506;DHT22;18955;51.224;8.482;2023-04-06T15:21:27;8.70;78.50
32506;DHT22;18955;51.224;8.482;2023-04-06T15:23:54;8.70;78.50
32506;DHT22;18955;51.224;8.482;2023-04-06T15:26:21;8.70;78.10
32506;DHT22;18955;51.224;8.482;2023-04-06T15:28:47;8.70;77.70
32506;DHT22;18955;51.224;8.482;2023-04-06T15:31:15;8.70;78.00
32506;DHT22;18955;51.224;8.482;2023-04-06T15:33:42;8.70;78.30
32506;DHT22;18955;51.224;8.482;2023-04-06T15:36:29;8.70;78.30
32506;DHT22;18955;51.224;8.482;2023-04-06T15:38:58;8.80;78.40
32506;DHT22;18955;51.224;8.482;2023-04-06T15:41:25;8.80;78.00
32506;DHT22;18955;51.224;8.482;2023-04-06T15:43:52;8.80;78.40
32506;DHT22;18955;51.224;8.482;2023-04-06T15:46:19;8.80;78.60
32506;DHT22;18955;51.224;8.482;2023-04-06T15:48:46;8.80;78.70
32506;DHT22;18955;51.224;8.482;2023-04-06T15:51:12;8.80;78.60
32506;DHT22;18955;51.224;8.482;2023-04-06T15:53:39;8.90;78.80
32506;DHT22;18955;51.224;8.482;2023-04-06T15:56:05;8.80;79.00
32506;DHT22;18955;51.224;8.482;2023-04-06T15:58:35;8.90;78.70
32506;DHT22;18955;51.224;8.482;2023-04-06T16:01:10;8.90;78.90